首页
METAR-TAF:

METAR-TAF

机场 :

阿克伦城, 科羅拉多州, 美国

纬度: 40-10-28N, 经度: 103-12-52W, 海拔: 1431米

当前天气观测

该预报发布于1小时和17分钟前的15:53 UTC
风速10节,风向西
温度 32°C
湿度 24%
气压 1016 hPa
能見度: 16.1公里
天空无云

METAR: KAKO 241553Z AUTO 28010KT 10SM CLR 32/09 A2999 RMK AO2 SLP077 T03170094

时间: 11:10 (17:10 UTC)


TAF: 丢失

超过4000个机场的气象观测和天气预报(METAR&TAF报告)。

可查询的气象台以黄色和红色小点在地图上表示。

将鼠标移到小点上方,可查看气象台名称。

然后点击查看天气观测和预报。

如需切换地图:点击带黑十字的绿色按钮放大地图;点击带横线的绿色按钮缩小地图;或者点击绿色箭头查看邻近地区的地图。


METAR-TAF: